METAR Data
IDs: Format: Raw Decoded Include TAF

Data at: 0935 UTC 18 Jan 2022

KARB 180853Z AUTO 24005KT 10SM BKN027 OVC032 M03/M07 A2991 RMK AO2 SLP141 T10331072 53014